createdAt,value
2018-11-01T00:00:08.293Z,17.70
2018-11-01T00:02:10.301Z,17.70
2018-11-01T00:04:12.289Z,17.70
2018-11-01T00:06:14.392Z,17.70
2018-11-01T00:08:16.362Z,17.70
2018-11-01T00:10:18.398Z,17.70
2018-11-01T00:12:20.426Z,17.60
2018-11-01T00:14:22.414Z,17.70
2018-11-01T00:16:24.412Z,17.60
2018-11-01T00:18:26.421Z,17.60
2018-11-01T00:20:28.404Z,17.60
2018-11-01T00:22:30.421Z,17.60
2018-11-01T00:24:32.399Z,17.60
2018-11-01T00:26:34.408Z,17.60
2018-11-01T00:28:36.429Z,17.60
2018-11-01T00:30:38.453Z,17.60
2018-11-01T00:32:40.459Z,17.60
2018-11-01T00:34:42.483Z,17.60
2018-11-01T00:36:44.458Z,17.60
2018-11-01T00:38:46.446Z,17.60
2018-11-01T00:40:48.458Z,17.60
2018-11-01T00:42:50.536Z,17.60
2018-11-01T00:44:52.565Z,17.60
2018-11-01T00:46:54.574Z,17.60
2018-11-01T00:48:56.595Z,17.60
2018-11-01T00:50:58.572Z,17.50
2018-11-01T00:53:00.572Z,17.50
2018-11-01T00:55:02.573Z,17.50
2018-11-01T00:57:04.602Z,17.50
2018-11-01T00:59:06.584Z,17.50
2018-11-01T01:01:08.614Z,17.50
2018-11-01T01:03:10.600Z,17.50
2018-11-01T01:05:12.613Z,17.50
2018-11-01T01:07:14.689Z,17.50
2018-11-01T01:09:16.615Z,17.50
2018-11-01T01:11:18.664Z,17.40
2018-11-01T01:13:20.658Z,17.40
2018-11-01T01:15:22.650Z,17.40
2018-11-01T01:17:24.660Z,17.40
2018-11-01T01:19:26.655Z,17.40
2018-11-01T01:21:28.701Z,17.40
2018-11-01T01:23:30.693Z,17.40
2018-11-01T01:25:32.646Z,17.40
2018-11-01T01:27:34.688Z,17.40
2018-11-01T01:29:36.680Z,17.40
2018-11-01T01:31:38.696Z,17.40
2018-11-01T01:33:40.678Z,17.40
2018-11-01T01:35:42.674Z,17.40
2018-11-01T01:37:44.734Z,17.40
2018-11-01T01:39:46.724Z,17.40
2018-11-01T01:41:48.713Z,17.30
2018-11-01T01:43:50.733Z,17.30
2018-11-01T01:45:52.721Z,17.30
2018-11-01T01:47:54.735Z,17.30
2018-11-01T01:49:56.713Z,17.30
2018-11-01T01:51:58.736Z,17.30
2018-11-01T01:54:00.727Z,17.30
2018-11-01T01:56:02.708Z,17.30
2018-11-01T01:58:04.709Z,17.30
2018-11-01T02:00:06.690Z,17.30
2018-11-01T02:02:08.668Z,17.30
2018-11-01T02:04:10.689Z,17.20
2018-11-01T02:06:12.666Z,17.30
2018-11-01T02:08:14.679Z,17.30
2018-11-01T02:10:16.703Z,17.30
2018-11-01T02:12:18.701Z,17.30
2018-11-01T02:14:20.725Z,17.20
2018-11-01T02:16:22.704Z,17.30
2018-11-01T02:18:24.761Z,17.30
2018-11-01T02:20:26.744Z,17.20
2018-11-01T02:22:28.740Z,17.20
2018-11-01T02:24:30.761Z,17.20
2018-11-01T02:26:32.749Z,17.20
2018-11-01T02:28:34.914Z,17.20
2018-11-01T02:30:36.940Z,17.20
2018-11-01T02:32:38.936Z,17.20
2018-11-01T02:34:40.969Z,17.20
2018-11-01T02:36:42.951Z,17.20
2018-11-01T02:38:44.993Z,17.20
2018-11-01T02:40:46.958Z,17.20
2018-11-01T02:42:48.989Z,17.20
2018-11-01T02:44:50.981Z,17.20
2018-11-01T02:46:52.960Z,17.20
2018-11-01T02:48:54.988Z,17.20
2018-11-01T02:50:57.968Z,17.10
2018-11-01T02:52:59.983Z,17.20
2018-11-01T02:55:01.998Z,17.10
2018-11-01T02:57:04.017Z,17.10
2018-11-01T02:59:06.009Z,17.10
2018-11-01T03:01:08.052Z,17.10
2018-11-01T03:03:10.023Z,17.10
2018-11-01T03:05:12.045Z,17.10
2018-11-01T03:07:14.074Z,17.10
2018-11-01T03:09:16.095Z,17.10
2018-11-01T03:11:18.152Z,17.10
2018-11-01T03:13:20.198Z,17.10
2018-11-01T03:15:22.174Z,17.10
2018-11-01T03:17:24.166Z,17.10
2018-11-01T03:19:26.184Z,17.10
2018-11-01T03:21:28.251Z,17.00
2018-11-01T03:23:30.203Z,17.10
2018-11-01T03:25:32.193Z,17.00
2018-11-01T03:27:34.166Z,17.00
2018-11-01T03:29:36.193Z,17.00
2018-11-01T03:31:38.249Z,17.00
2018-11-01T03:33:40.230Z,17.00
2018-11-01T03:35:42.283Z,17.00
2018-11-01T03:37:44.258Z,17.00
2018-11-01T03:39:46.275Z,17.00
2018-11-01T03:41:48.254Z,17.00
2018-11-01T03:43:50.247Z,17.00
2018-11-01T03:45:52.416Z,17.00
2018-11-01T03:47:54.268Z,17.00
2018-11-01T03:49:56.284Z,17.00
2018-11-01T03:51:58.315Z,17.00
2018-11-01T03:54:00.273Z,17.00
2018-11-01T03:56:02.276Z,17.00
2018-11-01T03:58:04.258Z,17.00
2018-11-01T04:00:06.296Z,17.00
2018-11-01T04:02:08.276Z,17.00
2018-11-01T04:04:10.261Z,16.90
2018-11-01T04:06:12.281Z,17.00
2018-11-01T04:08:14.257Z,16.90
2018-11-01T04:10:16.282Z,16.90
2018-11-01T04:12:18.261Z,16.90
2018-11-01T04:14:20.211Z,16.90
2018-11-01T04:16:22.270Z,16.90
2018-11-01T04:18:24.267Z,16.90
2018-11-01T04:20:26.244Z,16.90
2018-11-01T04:22:28.251Z,16.90
2018-11-01T04:24:30.242Z,16.90
2018-11-01T04:26:32.264Z,16.90
2018-11-01T04:28:34.266Z,16.90
2018-11-01T04:30:36.241Z,16.90
2018-11-01T04:32:38.264Z,16.90
2018-11-01T04:34:40.286Z,16.90
2018-11-01T04:36:42.280Z,16.90
2018-11-01T04:38:44.276Z,16.90
2018-11-01T04:40:46.392Z,16.90
2018-11-01T04:42:48.291Z,16.90
2018-11-01T04:44:50.275Z,16.90
2018-11-01T04:46:52.300Z,16.90
2018-11-01T04:48:54.304Z,16.90
2018-11-01T04:50:56.329Z,16.90
2018-11-01T04:52:58.337Z,17.00
2018-11-01T04:55:00.352Z,17.00
2018-11-01T04:57:02.343Z,17.10
2018-11-01T04:59:04.400Z,17.10
2018-11-01T05:01:06.382Z,17.20
2018-11-01T05:03:08.411Z,17.20
2018-11-01T05:05:10.492Z,17.30
2018-11-01T05:07:12.437Z,17.30
2018-11-01T05:09:14.423Z,17.40
2018-11-01T05:11:16.448Z,17.40
2018-11-01T05:13:18.468Z,17.50
2018-11-01T05:15:20.499Z,17.50
2018-11-01T05:17:22.480Z,17.60
2018-11-01T05:19:24.482Z,17.60
2018-11-01T05:21:26.496Z,17.70
2018-11-01T05:23:28.500Z,17.60
2018-11-01T05:25:30.497Z,17.70
2018-11-01T05:27:32.521Z,17.70
2018-11-01T05:29:34.559Z,17.70
2018-11-01T05:31:36.477Z,17.80
2018-11-01T05:33:38.497Z,17.80
2018-11-01T05:35:40.501Z,17.80
2018-11-01T05:37:42.524Z,17.80
2018-11-01T05:39:44.496Z,17.90
2018-11-01T05:41:46.583Z,18.00
2018-11-01T05:43:48.761Z,18.00
2018-11-01T05:45:50.742Z,18.00
2018-11-01T05:47:52.724Z,18.00
2018-11-01T05:49:54.739Z,18.10
2018-11-01T05:51:56.731Z,18.10
2018-11-01T05:53:58.749Z,18.10
2018-11-01T05:56:00.775Z,18.10
2018-11-01T05:58:02.810Z,18.10
2018-11-01T06:00:04.879Z,18.10
2018-11-01T06:02:06.810Z,18.10
2018-11-01T06:04:08.794Z,18.10
2018-11-01T06:06:10.821Z,18.10
2018-11-01T06:08:12.813Z,18.10
2018-11-01T06:10:14.807Z,18.10
2018-11-01T06:12:16.810Z,18.10
2018-11-01T06:14:18.783Z,18.10
2018-11-01T06:16:20.813Z,18.10
2018-11-01T06:18:22.776Z,18.10
2018-11-01T06:20:24.812Z,18.10
2018-11-01T06:22:26.785Z,18.10
2018-11-01T06:24:28.798Z,18.10
2018-11-01T06:26:30.809Z,18.20
2018-11-01T06:28:32.899Z,18.10
2018-11-01T06:30:34.880Z,18.10
2018-11-01T06:32:36.896Z,18.10
2018-11-01T06:34:38.944Z,18.10
2018-11-01T06:36:40.933Z,18.20
2018-11-01T06:38:42.954Z,18.20
2018-11-01T06:40:44.944Z,18.20
2018-11-01T06:42:46.968Z,18.20
2018-11-01T06:44:49.061Z,18.20
2018-11-01T06:46:50.985Z,18.20
2018-11-01T06:48:53.007Z,18.20
2018-11-01T06:50:55.017Z,18.20
2018-11-01T06:52:57.026Z,18.20
2018-11-01T06:54:59.072Z,18.20
2018-11-01T06:57:01.078Z,18.20
2018-11-01T06:59:03.194Z,18.20
2018-11-01T07:01:05.096Z,18.30
2018-11-01T07:03:07.059Z,18.30
2018-11-01T07:05:09.085Z,18.30
2018-11-01T07:07:11.073Z,18.30
2018-11-01T07:09:13.084Z,18.30
2018-11-01T07:11:15.097Z,18.30
2018-11-01T07:13:17.092Z,18.30
2018-11-01T07:15:19.135Z,18.30
2018-11-01T07:17:21.278Z,18.30
2018-11-01T07:19:25.383Z,18.30
2018-11-01T07:21:27.411Z,18.30
2018-11-01T07:23:29.401Z,18.30
2018-11-01T07:25:31.528Z,18.30
2018-11-01T07:27:33.414Z,18.30
2018-11-01T07:29:35.403Z,18.30
2018-11-01T07:31:37.396Z,18.30
2018-11-01T07:33:39.409Z,18.40
2018-11-01T07:35:41.400Z,18.30
2018-11-01T07:37:43.419Z,18.40
2018-11-01T07:39:45.445Z,18.40
2018-11-01T07:41:47.456Z,18.40
2018-11-01T07:43:49.480Z,18.20
2018-11-01T07:45:51.484Z,18.10
2018-11-01T07:47:53.489Z,18.10
2018-11-01T07:49:55.545Z,18.00
2018-11-01T07:51:57.566Z,18.10
2018-11-01T07:53:59.546Z,18.00
2018-11-01T07:56:01.532Z,18.00
2018-11-01T07:58:03.554Z,18.10
2018-11-01T08:00:05.551Z,18.00
2018-11-01T08:02:07.622Z,18.10
2018-11-01T08:04:09.610Z,18.10
2018-11-01T08:06:11.612Z,18.10
2018-11-01T08:08:13.636Z,18.10
2018-11-01T08:10:15.616Z,18.10
2018-11-01T08:12:17.619Z,18.10
2018-11-01T08:14:19.655Z,18.10
2018-11-01T08:16:21.665Z,18.10
2018-11-01T08:18:23.704Z,18.00
2018-11-01T08:20:26.024Z,18.00
2018-11-01T08:22:27.965Z,18.10
2018-11-01T08:24:29.978Z,18.00
2018-11-01T08:26:31.990Z,18.10
2018-11-01T08:28:33.990Z,18.00
2018-11-01T08:30:36.011Z,18.10
2018-11-01T08:32:38.027Z,18.10
2018-11-01T08:34:40.053Z,18.10
2018-11-01T08:36:42.117Z,18.20
2018-11-01T08:38:44.100Z,18.10
2018-11-01T08:40:46.128Z,18.10
2018-11-01T08:42:48.153Z,18.20
2018-11-01T08:44:50.151Z,18.10
2018-11-01T08:46:52.143Z,18.10
2018-11-01T08:48:54.141Z,18.10
2018-11-01T08:50:56.127Z,18.10
2018-11-01T08:52:58.150Z,18.10
2018-11-01T08:55:00.151Z,18.10
2018-11-01T08:57:02.120Z,18.10
2018-11-01T08:59:04.140Z,18.10
2018-11-01T09:01:06.134Z,18.10
2018-11-01T09:03:08.145Z,18.00
2018-11-01T09:05:10.135Z,18.00
2018-11-01T09:07:12.157Z,18.00
2018-11-01T09:09:14.134Z,18.00
2018-11-01T09:11:16.104Z,18.00
2018-11-01T09:13:18.163Z,18.00
2018-11-01T09:15:20.129Z,18.10
2018-11-01T09:17:22.170Z,18.20
2018-11-01T09:19:24.242Z,18.20
2018-11-01T09:21:26.164Z,18.30
2018-11-01T09:23:28.158Z,18.20
2018-11-01T09:25:30.185Z,18.30
2018-11-01T09:27:32.162Z,18.30
2018-11-01T09:29:34.196Z,18.30
2018-11-01T09:31:36.192Z,18.30
2018-11-01T09:33:38.165Z,18.30
2018-11-01T09:35:40.263Z,18.40
2018-11-01T09:37:42.213Z,18.40
2018-11-01T09:39:44.213Z,18.40
2018-11-01T09:41:46.206Z,18.40
2018-11-01T09:43:48.229Z,18.40
2018-11-01T09:45:50.314Z,18.40
2018-11-01T09:47:52.516Z,18.50
2018-11-01T09:49:54.276Z,18.00
2018-11-01T09:51:56.361Z,15.60
2018-11-01T09:53:58.424Z,14.30
2018-11-01T09:56:00.443Z,13.70
2018-11-01T09:58:02.497Z,14.80
2018-11-01T10:00:04.470Z,15.90
2018-11-01T10:02:06.525Z,16.70
2018-11-01T10:04:08.502Z,17.20
2018-11-01T10:06:10.529Z,17.60
2018-11-01T10:08:12.528Z,17.80
2018-11-01T10:10:14.561Z,18.00
2018-11-01T10:12:16.570Z,18.10
2018-11-01T10:14:18.519Z,18.20
2018-11-01T10:16:20.724Z,17.80
2018-11-01T10:18:22.891Z,15.60
2018-11-01T10:20:24.518Z,14.20
2018-11-01T10:22:26.630Z,13.60
2018-11-01T10:24:28.542Z,14.00
2018-11-01T10:26:30.503Z,15.10
2018-11-01T10:28:32.493Z,16.00
2018-11-01T10:30:34.480Z,16.70
2018-11-01T10:32:36.438Z,17.10
2018-11-01T10:34:38.441Z,17.40
2018-11-01T10:36:40.419Z,17.60
2018-11-01T10:38:42.421Z,17.80
2018-11-01T10:40:44.519Z,17.90
2018-11-01T10:42:46.458Z,17.90
2018-11-01T10:44:48.427Z,18.00
2018-11-01T10:46:50.573Z,18.10
2018-11-01T10:48:52.545Z,18.10
2018-11-01T10:50:54.607Z,18.10
2018-11-01T10:52:56.601Z,18.10
2018-11-01T10:54:58.586Z,18.10
2018-11-01T10:57:00.637Z,18.10
2018-11-01T10:59:02.616Z,18.10
2018-11-01T11:01:05.095Z,18.10
2018-11-01T11:03:07.089Z,18.20
2018-11-01T11:05:09.066Z,18.20
2018-11-01T11:07:11.079Z,18.20
2018-11-01T11:09:13.108Z,18.20
2018-11-01T11:11:15.103Z,18.20
2018-11-01T11:13:17.110Z,18.20
2018-11-01T11:15:19.095Z,18.20
2018-11-01T11:17:21.089Z,18.20
2018-11-01T11:19:23.129Z,18.20
2018-11-01T11:21:25.153Z,18.30
2018-11-01T11:23:27.147Z,18.30
2018-11-01T11:25:29.153Z,18.20
2018-11-01T11:27:31.329Z,18.30
2018-11-01T11:29:33.287Z,18.30
2018-11-01T11:31:35.315Z,18.30
2018-11-01T11:33:37.303Z,18.30
2018-11-01T11:35:39.300Z,18.30
2018-11-01T11:37:41.319Z,18.30
2018-11-01T11:39:43.391Z,18.30
2018-11-01T11:41:45.381Z,18.30
2018-11-01T11:43:47.413Z,18.30
2018-11-01T11:45:49.395Z,18.30
2018-11-01T11:47:51.382Z,18.30
2018-11-01T11:49:53.405Z,18.30
2018-11-01T11:51:55.405Z,18.30
2018-11-01T11:53:57.409Z,18.30
2018-11-01T11:55:59.393Z,18.30
2018-11-01T11:58:01.405Z,18.30
2018-11-01T12:00:03.407Z,18.30
2018-11-01T12:02:05.438Z,18.30
2018-11-01T12:04:07.468Z,18.30
2018-11-01T12:06:09.592Z,18.30
2018-11-01T12:08:11.497Z,18.30
2018-11-01T12:10:13.503Z,18.30
2018-11-01T12:12:15.517Z,18.30
2018-11-01T12:14:17.595Z,18.30
2018-11-01T12:16:19.523Z,18.30
2018-11-01T12:18:21.510Z,18.30
2018-11-01T12:20:23.515Z,18.40
2018-11-01T12:22:25.642Z,18.40
2018-11-01T12:24:27.585Z,18.40
2018-11-01T12:26:29.557Z,18.40
2018-11-01T12:28:31.645Z,18.40
2018-11-01T12:30:33.564Z,18.40
2018-11-01T12:32:35.532Z,18.50
2018-11-01T12:34:37.542Z,18.50
2018-11-01T12:36:39.522Z,18.50
2018-11-01T12:38:41.505Z,18.40
2018-11-01T12:40:43.513Z,18.40
2018-11-01T12:42:45.481Z,18.50
2018-11-01T12:44:47.470Z,18.50
2018-11-01T12:46:49.446Z,18.50
2018-11-01T12:48:51.494Z,18.50
2018-11-01T12:50:53.476Z,18.50
2018-11-01T12:52:55.449Z,18.40
2018-11-01T12:54:57.546Z,18.50
2018-11-01T12:56:59.501Z,18.40
2018-11-01T12:59:01.543Z,18.50
2018-11-01T13:01:03.512Z,18.50
2018-11-01T13:03:05.497Z,18.50
2018-11-01T13:05:07.509Z,18.50
2018-11-01T13:07:09.544Z,18.50
2018-11-01T13:09:11.604Z,18.50
2018-11-01T13:11:13.584Z,18.50
2018-11-01T13:13:15.599Z,18.50
2018-11-01T13:15:17.592Z,18.50
2018-11-01T13:17:19.595Z,18.40
2018-11-01T13:19:21.737Z,18.40
2018-11-01T13:21:23.703Z,18.50
2018-11-01T13:23:25.697Z,18.50
2018-11-01T13:25:27.684Z,18.50
2018-11-01T13:27:30.575Z,18.50
2018-11-01T13:29:32.537Z,18.50
2018-11-01T13:31:34.548Z,18.50
2018-11-01T13:33:36.556Z,18.50
2018-11-01T13:35:38.541Z,18.50
2018-11-01T13:37:40.522Z,18.50
2018-11-01T13:39:42.608Z,18.50
2018-11-01T13:41:44.628Z,18.50
2018-11-01T13:43:46.540Z,18.50
2018-11-01T13:45:48.520Z,18.50
2018-11-01T13:47:50.672Z,18.50
2018-11-01T13:49:52.520Z,18.50
2018-11-01T13:51:54.498Z,18.50
2018-11-01T13:53:56.517Z,18.50
2018-11-01T13:55:58.560Z,18.50
2018-11-01T13:58:00.534Z,18.50
2018-11-01T14:00:02.549Z,18.50
2018-11-01T14:02:04.525Z,18.50
2018-11-01T14:04:06.508Z,18.50
2018-11-01T14:06:08.566Z,18.50
2018-11-01T14:08:10.520Z,18.50
2018-11-01T14:10:12.528Z,18.50
2018-11-01T14:12:14.516Z,18.50
2018-11-01T14:14:16.809Z,18.50
2018-11-01T14:16:18.529Z,18.50
2018-11-01T14:18:20.520Z,18.50
2018-11-01T14:20:22.546Z,18.50
2018-11-01T14:22:24.553Z,18.50
2018-11-01T14:24:26.560Z,18.50
2018-11-01T14:26:28.551Z,18.50
2018-11-01T14:28:30.537Z,18.50
2018-11-01T14:30:32.574Z,18.50
2018-11-01T14:32:34.560Z,18.50
2018-11-01T14:34:36.539Z,18.50
2018-11-01T14:36:38.573Z,18.50
2018-11-01T14:38:40.561Z,18.60
2018-11-01T14:40:42.580Z,18.50
2018-11-01T14:42:44.620Z,18.50
2018-11-01T14:44:46.654Z,18.50
2018-11-01T14:46:48.644Z,18.50
2018-11-01T14:48:50.644Z,18.60
2018-11-01T14:50:52.661Z,18.50
2018-11-01T14:52:54.824Z,18.50
2018-11-01T14:54:57.622Z,18.60
2018-11-01T14:57:00.478Z,18.50
2018-11-01T14:59:01.898Z,18.50
2018-11-01T15:01:02.740Z,18.50
2018-11-01T15:03:04.708Z,18.50
2018-11-01T15:05:06.708Z,18.50
2018-11-01T15:07:08.726Z,18.50
2018-11-01T15:09:10.728Z,18.50
2018-11-01T15:11:12.760Z,18.50
2018-11-01T15:13:14.850Z,18.40
2018-11-01T15:15:16.749Z,16.20
2018-11-01T15:17:18.744Z,14.80
2018-11-01T15:19:20.768Z,14.40
2018-11-01T15:21:22.756Z,15.40
2018-11-01T15:23:24.766Z,16.30
2018-11-01T15:25:26.748Z,17.00
2018-11-01T15:27:28.749Z,17.50
2018-11-01T15:29:30.744Z,17.80
2018-11-01T15:31:32.780Z,17.90
2018-11-01T15:33:34.926Z,18.10
2018-11-01T15:35:36.860Z,18.10
2018-11-01T15:37:39.004Z,18.20
2018-11-01T15:39:40.937Z,18.30
2018-11-01T15:41:42.869Z,18.30
2018-11-01T15:43:44.891Z,18.30
2018-11-01T15:45:46.920Z,18.30
2018-11-01T15:47:48.937Z,18.30
2018-11-01T15:49:50.989Z,18.30
2018-11-01T15:51:53.060Z,18.40
2018-11-01T15:53:55.006Z,18.40
2018-11-01T15:55:57.002Z,18.40
2018-11-01T15:57:59.050Z,18.40
2018-11-01T16:00:01.061Z,18.40
2018-11-01T16:02:03.054Z,18.40
2018-11-01T16:04:05.110Z,18.40
2018-11-01T16:06:07.075Z,18.40
2018-11-01T16:08:09.561Z,18.50
2018-11-01T16:10:11.767Z,18.50
2018-11-01T16:12:13.605Z,18.50
2018-11-01T16:14:15.633Z,18.50
2018-11-01T16:16:17.633Z,18.50
2018-11-01T16:18:19.599Z,18.50
2018-11-01T16:20:21.715Z,18.50
2018-11-01T16:22:23.864Z,18.50
2018-11-01T16:24:25.855Z,18.50
2018-11-01T16:26:27.896Z,18.50
2018-11-01T16:28:29.978Z,18.50
2018-11-01T16:30:31.961Z,18.50
2018-11-01T16:32:33.973Z,18.50
2018-11-01T16:34:35.988Z,18.50
2018-11-01T16:36:38.107Z,18.60
2018-11-01T16:38:40.164Z,18.50
2018-11-01T16:40:42.202Z,18.60
2018-11-01T16:42:44.342Z,18.50
2018-11-01T16:44:46.220Z,18.50
2018-11-01T16:46:48.236Z,18.50
2018-11-01T16:48:50.215Z,18.50
2018-11-01T16:50:52.386Z,18.50
2018-11-01T16:52:54.261Z,18.50
2018-11-01T16:54:56.290Z,18.50
2018-11-01T16:56:58.270Z,18.50
2018-11-01T16:59:00.272Z,18.50
2018-11-01T17:01:02.311Z,18.50
2018-11-01T17:03:04.366Z,18.50
2018-11-01T17:05:06.361Z,18.50
2018-11-01T17:07:08.349Z,18.60
2018-11-01T17:09:10.379Z,18.60
2018-11-01T17:11:12.412Z,18.60
2018-11-01T17:13:14.398Z,18.60
2018-11-01T17:15:16.508Z,18.60
2018-11-01T17:17:18.460Z,18.60
2018-11-01T17:19:20.445Z,18.60
2018-11-01T17:21:22.460Z,18.60
2018-11-01T17:23:24.448Z,18.70
2018-11-01T17:25:26.469Z,18.60
2018-11-01T17:27:28.503Z,18.60
2018-11-01T17:29:30.542Z,18.60
2018-11-01T17:31:32.511Z,18.70
2018-11-01T17:33:34.546Z,18.60
2018-11-01T17:35:36.583Z,18.60
2018-11-01T17:37:38.613Z,18.60
2018-11-01T17:39:40.593Z,18.70
2018-11-01T17:41:42.625Z,18.60
2018-11-01T17:43:44.657Z,18.60
2018-11-01T17:45:46.683Z,18.70
2018-11-01T17:47:48.734Z,18.60
2018-11-01T17:49:50.720Z,18.70
2018-11-01T17:51:52.749Z,18.70
2018-11-01T17:53:54.768Z,18.70
2018-11-01T17:55:56.752Z,18.70
2018-11-01T17:57:58.894Z,18.70
2018-11-01T18:00:00.887Z,18.70
2018-11-01T18:02:03.229Z,18.70
2018-11-01T18:04:05.281Z,18.70
2018-11-01T18:06:07.268Z,18.60
2018-11-01T18:08:09.347Z,18.60
2018-11-01T18:10:11.279Z,18.60
2018-11-01T18:12:13.305Z,18.60
2018-11-01T18:14:15.385Z,18.60
2018-11-01T18:16:17.344Z,18.60
2018-11-01T18:18:19.347Z,18.70
2018-11-01T18:20:21.368Z,18.70
2018-11-01T18:22:23.378Z,18.70
2018-11-01T18:24:25.407Z,18.60
2018-11-01T18:26:27.751Z,18.60
2018-11-01T18:28:29.748Z,18.60
2018-11-01T18:30:31.764Z,18.60
2018-11-01T18:32:33.883Z,18.60
2018-11-01T18:34:35.845Z,18.60
2018-11-01T18:36:37.814Z,18.70
2018-11-01T18:38:39.802Z,18.60
2018-11-01T18:40:41.833Z,18.60
2018-11-01T18:42:43.842Z,18.70
2018-11-01T18:44:45.821Z,18.70
2018-11-01T18:46:47.837Z,18.70
2018-11-01T18:48:49.879Z,18.70
2018-11-01T18:50:51.883Z,18.70
2018-11-01T18:52:53.928Z,18.70
2018-11-01T18:54:55.931Z,18.70
2018-11-01T18:56:57.914Z,18.70
2018-11-01T18:58:59.958Z,18.70
2018-11-01T19:01:02.053Z,18.70
2018-11-01T19:03:04.032Z,18.70
2018-11-01T19:05:06.377Z,18.70
2018-11-01T19:07:08.677Z,18.70
2018-11-01T19:09:10.697Z,18.70
2018-11-01T19:11:12.790Z,18.70
2018-11-01T19:13:14.808Z,18.70
2018-11-01T19:15:16.899Z,18.70
2018-11-01T19:17:18.827Z,18.70
2018-11-01T19:19:20.857Z,18.70
2018-11-01T19:21:23.208Z,18.70
2018-11-01T19:23:25.232Z,18.70
2018-11-01T19:25:27.280Z,18.70
2018-11-01T19:27:29.486Z,18.70
2018-11-01T19:29:31.292Z,18.60
2018-11-01T19:31:33.270Z,18.60
2018-11-01T19:33:35.443Z,18.60
2018-11-01T19:35:37.461Z,18.60
2018-11-01T19:37:39.440Z,18.60
2018-11-01T19:39:41.445Z,18.60
2018-11-01T19:41:43.438Z,18.60
2018-11-01T19:43:45.470Z,18.60
2018-11-01T19:45:47.451Z,18.60
2018-11-01T19:47:49.427Z,18.60
2018-11-01T19:49:51.507Z,18.60
2018-11-01T19:51:53.433Z,18.70
2018-11-01T19:53:55.515Z,18.60
2018-11-01T19:55:57.486Z,18.70
2018-11-01T19:57:59.478Z,18.70
2018-11-01T20:00:01.484Z,18.70
2018-11-01T20:02:03.520Z,18.70
2018-11-01T20:04:05.620Z,18.70
2018-11-01T20:06:07.811Z,18.60
2018-11-01T20:08:09.867Z,18.60
2018-11-01T20:10:12.308Z,18.60
2018-11-01T20:12:14.287Z,18.60
2018-11-01T20:14:16.487Z,18.60
2018-11-01T20:16:18.457Z,18.50
2018-11-01T20:18:20.734Z,18.50
2018-11-01T20:20:22.715Z,18.50
2018-11-01T20:22:24.764Z,18.50
2018-11-01T20:24:26.734Z,18.50
2018-11-01T20:26:28.715Z,18.50
2018-11-01T20:28:30.742Z,18.50
2018-11-01T20:30:32.763Z,18.50
2018-11-01T20:32:34.810Z,18.40
2018-11-01T20:34:37.041Z,18.40
2018-11-01T20:36:39.019Z,18.40
2018-11-01T20:38:41.077Z,18.40
2018-11-01T20:40:43.088Z,18.40
2018-11-01T20:42:45.120Z,18.30
2018-11-01T20:44:47.093Z,18.40
2018-11-01T20:46:49.095Z,18.40
2018-11-01T20:48:51.084Z,18.40
2018-11-01T20:50:53.082Z,18.30
2018-11-01T20:52:55.093Z,18.30
2018-11-01T20:54:57.068Z,18.30
2018-11-01T20:56:59.077Z,18.30
2018-11-01T20:59:01.068Z,18.30
2018-11-01T21:01:03.054Z,18.30
2018-11-01T21:03:05.062Z,18.30
2018-11-01T21:05:07.192Z,18.20
2018-11-01T21:07:09.089Z,18.30
2018-11-01T21:09:11.107Z,18.30
2018-11-01T21:11:13.171Z,18.20
2018-11-01T21:13:15.080Z,18.20
2018-11-01T21:15:17.090Z,18.20
2018-11-01T21:17:19.137Z,18.20
2018-11-01T21:19:21.512Z,18.20
2018-11-01T21:21:23.962Z,18.10
2018-11-01T21:23:25.966Z,18.10
2018-11-01T21:25:27.955Z,18.10
2018-11-01T21:27:29.962Z,18.00
2018-11-01T21:29:31.941Z,18.00
2018-11-01T21:31:33.944Z,17.90
2018-11-01T21:33:36.357Z,17.90
2018-11-01T21:35:38.386Z,17.80
2018-11-01T21:37:40.407Z,17.70
2018-11-01T21:39:42.397Z,17.60
2018-11-01T21:41:44.385Z,17.60
2018-11-01T21:43:46.399Z,17.60
2018-11-01T21:45:48.383Z,17.60
2018-11-01T21:47:50.441Z,17.60
2018-11-01T21:49:52.418Z,17.60
2018-11-01T21:51:54.443Z,17.50
2018-11-01T21:53:56.436Z,17.50
2018-11-01T21:55:58.426Z,17.50
2018-11-01T21:58:00.437Z,17.40
2018-11-01T22:00:02.346Z,17.40
2018-11-01T22:02:04.144Z,17.50
2018-11-01T22:04:05.926Z,17.60
2018-11-01T22:06:07.782Z,17.80
2018-11-01T22:08:09.571Z,17.90
2018-11-01T22:10:11.361Z,17.90
2018-11-01T22:12:13.165Z,17.90
2018-11-01T22:14:14.980Z,17.90
2018-11-01T22:16:16.770Z,17.90
2018-11-01T22:18:18.606Z,17.90
2018-11-01T22:20:20.387Z,17.90
2018-11-01T22:22:22.203Z,17.90
2018-11-01T22:24:24.002Z,17.90
2018-11-01T22:26:25.845Z,17.90
2018-11-01T22:28:27.729Z,17.90
2018-11-01T22:30:29.533Z,17.80
2018-11-01T22:32:31.365Z,17.80
2018-11-01T22:34:33.140Z,17.80
2018-11-01T22:36:34.927Z,17.80
2018-11-01T22:38:36.757Z,17.70
2018-11-01T22:40:38.541Z,17.70
2018-11-01T22:42:40.354Z,17.70
2018-11-01T22:44:42.130Z,17.70
2018-11-01T22:46:43.906Z,17.70
2018-11-01T22:48:45.721Z,17.70
2018-11-01T22:50:47.504Z,17.60
2018-11-01T22:52:49.274Z,17.70
2018-11-01T22:54:51.108Z,17.60
2018-11-01T22:56:52.893Z,17.60
2018-11-01T22:58:54.709Z,17.60
2018-11-01T23:00:56.530Z,17.60
2018-11-01T23:02:58.344Z,17.60
2018-11-01T23:05:00.153Z,17.60
2018-11-01T23:07:01.996Z,17.60
2018-11-01T23:09:03.790Z,17.60
2018-11-01T23:11:05.583Z,17.50
2018-11-01T23:13:07.386Z,17.50
2018-11-01T23:15:09.222Z,17.50
2018-11-01T23:17:11.020Z,17.50
2018-11-01T23:19:12.837Z,17.50
2018-11-01T23:21:14.637Z,17.50
2018-11-01T23:23:16.447Z,17.50
2018-11-01T23:25:18.261Z,17.50
2018-11-01T23:27:20.027Z,17.50
2018-11-01T23:29:21.828Z,17.50
2018-11-01T23:31:24.305Z,17.50
2018-11-01T23:33:26.065Z,17.50
2018-11-01T23:35:27.892Z,17.50
2018-11-01T23:37:29.692Z,17.50
2018-11-01T23:39:31.489Z,17.40
2018-11-01T23:41:33.302Z,17.40
2018-11-01T23:43:35.080Z,17.40
2018-11-01T23:45:36.995Z,17.40
2018-11-01T23:47:38.774Z,17.30
2018-11-01T23:49:40.625Z,17.30
2018-11-01T23:51:42.750Z,17.30
2018-11-01T23:53:44.528Z,17.30
2018-11-01T23:55:46.309Z,17.30
2018-11-01T23:57:48.130Z,17.30
2018-11-01T23:59:49.960Z,17.30
